Terminal Aerodrome Forecast
Issued by NWS

Home | Current Version | Previous Version | Text Only | Print | Product List | Glossary On
Versions: 1 2 3 4 5 6 7 8 9 10 11 12 13 14 15 16 17 18 19 20 21 22
000
FTUS43 KDVN 242300
TAFBRL
TAF
KBRL 242329Z 2500/2524 16005KT P6SM FEW040 BKN200
     FM251000 15008KT P6SM VCTS SCT050CB OVC250
      TEMPO 2511/2514 3SM TSRA BR BKN040CB
     FM251400 16009KT 6SM -RA BR VCTS OVC040CB
     FM251700 18012G18KT P6SM FEW015 BKN035=

USA.gov is the U.S. government's official web portal to all federal, state and local government web resources and services.